createdAt,value
2019-05-06T00:00:26.539Z,82.24
2019-05-06T00:02:55.904Z,82.19
2019-05-06T00:05:25.904Z,82.27
2019-05-06T00:07:55.590Z,82.24
2019-05-06T00:10:30.334Z,82.35
2019-05-06T00:12:59.764Z,82.30
2019-05-06T00:15:29.897Z,82.27
2019-05-06T00:17:59.554Z,82.45
2019-05-06T00:20:30.276Z,82.60
2019-05-06T00:23:06.893Z,82.92
2019-05-06T00:25:40.876Z,83.00
2019-05-06T00:28:24.472Z,83.26
2019-05-06T00:31:09.588Z,83.24
2019-05-06T00:33:27.808Z,83.45
2019-05-06T00:36:00.219Z,83.42
2019-05-06T00:38:28.540Z,83.64
2019-05-06T00:40:59.562Z,84.06
2019-05-06T00:43:29.967Z,84.38
2019-05-06T00:45:59.597Z,84.64
2019-05-06T00:48:29.942Z,84.89
2019-05-06T00:50:59.330Z,85.04
2019-05-06T00:53:31.962Z,85.17
2019-05-06T00:56:01.866Z,85.27
2019-05-06T00:58:31.571Z,85.27
2019-05-06T01:01:01.205Z,85.28
2019-05-06T01:03:34.754Z,85.34
2019-05-06T01:06:04.005Z,85.28
2019-05-06T01:08:34.836Z,85.26
2019-05-06T01:11:05.284Z,85.21
2019-05-06T01:13:48.425Z,85.24
2019-05-06T01:16:19.701Z,85.21
2019-05-06T01:18:49.062Z,85.12
2019-05-06T01:21:18.730Z,85.03
2019-05-06T01:23:48.121Z,85.01
2019-05-06T01:26:17.821Z,85.02
2019-05-06T01:28:47.948Z,85.08
2019-05-06T01:31:17.600Z,85.15
2019-05-06T01:33:47.002Z,85.19
2019-05-06T01:36:16.646Z,85.02
2019-05-06T01:38:59.438Z,84.88
2019-05-06T01:41:35.700Z,84.82
2019-05-06T01:44:05.613Z,85.00
2019-05-06T01:46:34.986Z,85.22
2019-05-06T01:49:04.785Z,85.26
2019-05-06T01:51:34.819Z,85.30
2019-05-06T01:54:04.398Z,85.34
2019-05-06T01:56:34.051Z,85.27
2019-05-06T01:59:04.696Z,85.19
2019-05-06T02:01:34.434Z,85.29
2019-05-06T02:04:05.653Z,85.34
2019-05-06T02:06:35.312Z,85.36
2019-05-06T02:09:10.614Z,85.52
2019-05-06T02:11:39.989Z,85.42
2019-05-06T02:14:09.370Z,85.40
2019-05-06T02:16:39.273Z,85.46
2019-05-06T02:19:08.799Z,85.54
2019-05-06T02:21:39.796Z,85.62
2019-05-06T02:24:16.735Z,85.77
2019-05-06T02:26:46.146Z,85.87
2019-05-06T02:29:29.662Z,85.94
2019-05-06T02:32:17.107Z,86.01
2019-05-06T02:34:54.653Z,86.21
2019-05-06T02:37:40.331Z,86.33
2019-05-06T02:40:24.238Z,86.33
2019-05-06T02:42:54.635Z,86.39
2019-05-06T02:45:24.149Z,86.39
2019-05-06T02:47:55.583Z,86.28
2019-05-06T02:50:26.610Z,86.21
2019-05-06T02:52:55.987Z,86.21
2019-05-06T02:55:25.356Z,86.00
2019-05-06T02:57:54.933Z,86.11
2019-05-06T03:00:24.291Z,86.22
2019-05-06T03:02:54.987Z,86.32
2019-05-06T03:05:24.420Z,86.41
2019-05-06T03:07:57.093Z,86.43
2019-05-06T03:10:25.086Z,86.58
2019-05-06T03:12:54.751Z,86.59
2019-05-06T03:15:24.368Z,86.60
2019-05-06T03:17:55.298Z,86.65
2019-05-06T03:20:32.382Z,86.70
2019-05-06T03:23:08.605Z,86.69
2019-05-06T03:25:39.835Z,86.64
2019-05-06T03:28:09.223Z,86.53
2019-05-06T03:30:38.608Z,86.31
2019-05-06T03:33:38.292Z,86.31
2019-05-06T03:35:56.051Z,86.65
2019-05-06T03:38:13.559Z,86.63
2019-05-06T03:40:45.726Z,86.62
2019-05-06T03:43:15.909Z,86.72
2019-05-06T03:46:04.292Z,86.83
2019-05-06T03:48:38.081Z,86.87
2019-05-06T03:51:07.482Z,87.01
2019-05-06T03:53:37.519Z,87.12
2019-05-06T03:56:07.033Z,87.06
2019-05-06T03:58:37.680Z,87.04
2019-05-06T04:01:07.043Z,86.94
2019-05-06T04:03:46.857Z,86.94
2019-05-06T04:06:07.543Z,86.98
2019-05-06T04:08:37.576Z,86.94
2019-05-06T04:11:07.086Z,86.86
2019-05-06T04:13:36.864Z,86.92
2019-05-06T04:16:13.883Z,87.03
2019-05-06T04:18:48.150Z,86.93
2019-05-06T04:21:19.417Z,86.81
2019-05-06T04:23:53.380Z,86.60
2019-05-06T04:26:26.707Z,86.62
2019-05-06T04:28:56.374Z,86.55
2019-05-06T04:31:26.074Z,86.52
2019-05-06T04:34:08.017Z,86.56
2019-05-06T04:36:27.153Z,86.38
2019-05-06T04:38:56.531Z,86.11
2019-05-06T04:41:26.609Z,86.02
2019-05-06T04:43:56.332Z,86.02
2019-05-06T04:46:25.983Z,86.14
2019-05-06T04:48:55.366Z,85.96
2019-05-06T04:51:25.136Z,85.86
2019-05-06T04:53:54.469Z,85.62
2019-05-06T04:56:24.147Z,85.08
2019-05-06T04:58:54.029Z,85.03
2019-05-06T05:01:23.543Z,85.03
2019-05-06T05:03:54.104Z,84.96
2019-05-06T05:06:23.509Z,84.96
2019-05-06T05:08:53.749Z,84.98
2019-05-06T05:11:42.373Z,84.96
2019-05-06T05:14:25.964Z,84.90
2019-05-06T05:17:13.369Z,84.70
2019-05-06T05:19:42.954Z,84.56
2019-05-06T05:22:12.692Z,84.35
2019-05-06T05:24:42.583Z,84.24
2019-05-06T05:27:12.642Z,84.13
2019-05-06T05:29:42.534Z,84.08
2019-05-06T05:32:12.768Z,83.97
2019-05-06T05:34:43.577Z,83.55
2019-05-06T05:37:13.185Z,83.07
2019-05-06T05:39:42.920Z,83.07
2019-05-06T05:42:29.133Z,83.19
2019-05-06T05:44:58.986Z,83.30
2019-05-06T05:47:28.354Z,83.16
2019-05-06T05:50:02.986Z,83.29
2019-05-06T05:52:33.091Z,82.79
2019-05-06T05:55:03.350Z,82.59
2019-05-06T05:57:32.713Z,82.32
2019-05-06T06:00:04.020Z,81.76
2019-05-06T06:02:34.685Z,81.93
2019-05-06T06:05:06.141Z,81.76
2019-05-06T06:07:36.033Z,81.76
2019-05-06T06:10:12.919Z,81.87
2019-05-06T06:12:42.973Z,81.70
2019-05-06T06:15:16.539Z,81.34
2019-05-06T06:17:51.906Z,81.34
2019-05-06T06:20:39.328Z,81.01
2019-05-06T06:23:10.398Z,81.33
2019-05-06T06:25:39.800Z,81.43
2019-05-06T06:28:11.934Z,80.72
2019-05-06T06:30:52.082Z,80.67
2019-05-06T06:33:22.326Z,80.65
2019-05-06T06:35:56.114Z,80.72
2019-05-06T06:38:43.333Z,80.56
2019-05-06T06:41:12.954Z,79.51
2019-05-06T06:43:44.200Z,79.51
2019-05-06T06:46:13.579Z,79.64
2019-05-06T06:48:43.101Z,79.48
2019-05-06T06:51:12.507Z,79.02
2019-05-06T06:53:42.881Z,78.70
2019-05-06T06:56:22.048Z,78.86
2019-05-06T06:59:09.464Z,78.86
2019-05-06T07:01:52.944Z,78.89
2019-05-06T07:07:20.028Z,78.79
2019-05-06T07:09:52.496Z,77.76
2019-05-06T07:12:23.427Z,77.56
2019-05-06T07:14:54.464Z,77.21
2019-05-06T07:17:23.839Z,77.29
2019-05-06T07:19:57.839Z,76.37
2019-05-06T07:22:29.059Z,76.55
2019-05-06T07:24:58.423Z,76.55
2019-05-06T07:27:28.971Z,76.25
2019-05-06T07:29:58.515Z,75.53
2019-05-06T07:32:29.035Z,75.53
2019-05-06T07:34:58.502Z,74.54
2019-05-06T07:37:27.874Z,73.43
2019-05-06T07:39:57.709Z,72.76
2019-05-06T07:42:28.747Z,72.76
2019-05-06T07:45:15.102Z,72.17
2019-05-06T07:47:46.779Z,72.62
2019-05-06T07:50:16.600Z,70.90
2019-05-06T07:53:03.581Z,71.04
2019-05-06T07:55:32.938Z,70.05
2019-05-06T07:58:03.024Z,70.04
2019-05-06T08:00:33.988Z,69.53
2019-05-06T08:03:03.677Z,69.53
2019-05-06T08:05:33.051Z,68.33
2019-05-06T08:08:03.542Z,67.87
2019-05-06T08:10:33.523Z,67.14
2019-05-06T08:13:03.070Z,66.98
2019-05-06T08:15:33.038Z,66.55
2019-05-06T08:18:03.539Z,66.43
2019-05-06T08:20:37.277Z,66.24
2019-05-06T08:23:12.631Z,66.13
2019-05-06T08:25:43.729Z,65.22
2019-05-06T08:28:13.453Z,65.92
2019-05-06T08:30:43.985Z,65.42
2019-05-06T08:33:13.720Z,64.53
2019-05-06T08:35:43.082Z,65.72
2019-05-06T08:38:12.610Z,63.69
2019-05-06T08:40:43.027Z,63.18
2019-05-06T08:43:13.608Z,62.25
2019-05-06T08:45:43.259Z,62.66
2019-05-06T08:48:13.141Z,63.18
2019-05-06T08:50:48.077Z,62.51
2019-05-06T08:53:19.340Z,61.67
2019-05-06T08:55:50.280Z,62.37
2019-05-06T08:58:22.133Z,61.86
2019-05-06T09:00:55.541Z,62.21
2019-05-06T09:03:24.633Z,60.83
2019-05-06T09:05:54.005Z,60.97
2019-05-06T09:08:25.031Z,59.62
2019-05-06T09:10:54.696Z,61.96
2019-05-06T09:13:24.087Z,60.57
2019-05-06T09:15:53.776Z,58.83
2019-05-06T09:18:24.071Z,59.13
2019-05-06T09:20:53.843Z,58.57
2019-05-06T09:23:23.216Z,59.12
2019-05-06T09:25:53.276Z,58.47
2019-05-06T09:28:24.353Z,57.82
2019-05-06T09:30:57.985Z,57.55
2019-05-06T09:33:28.998Z,57.63
2019-05-06T09:35:58.367Z,57.18
2019-05-06T09:38:28.025Z,57.32
2019-05-06T09:40:57.757Z,57.31
2019-05-06T09:43:27.086Z,56.69
2019-05-06T09:45:57.003Z,56.71
2019-05-06T09:48:44.001Z,57.42
2019-05-06T09:51:13.371Z,57.56
2019-05-06T09:54:04.102Z,55.80
2019-05-06T09:56:42.778Z,55.80
2019-05-06T09:59:12.904Z,55.44
2019-05-06T10:01:43.863Z,55.35
2019-05-06T10:04:13.202Z,55.82
2019-05-06T10:06:55.791Z,56.60
2019-05-06T10:09:15.847Z,56.81
2019-05-06T10:11:45.093Z,56.45
2019-05-06T10:14:14.767Z,56.54
2019-05-06T10:16:46.520Z,55.73
2019-05-06T10:19:15.920Z,55.78
2019-05-06T10:21:45.582Z,56.27
2019-05-06T10:24:15.053Z,55.85
2019-05-06T10:26:46.324Z,55.44
2019-05-06T10:29:22.205Z,56.55
2019-05-06T10:31:52.884Z,56.44
2019-05-06T10:34:32.796Z,54.38
2019-05-06T10:37:19.282Z,54.58
2019-05-06T10:40:05.163Z,55.26
2019-05-06T10:42:38.244Z,54.82
2019-05-06T10:45:28.000Z,52.80
2019-05-06T10:47:57.435Z,51.34
2019-05-06T10:50:28.640Z,51.51
2019-05-06T10:53:15.135Z,51.82
2019-05-06T10:55:53.350Z,52.80
2019-05-06T10:58:22.521Z,52.32
2019-05-06T11:00:53.946Z,52.00
2019-05-06T11:03:23.753Z,51.93
2019-05-06T11:05:53.706Z,52.49
2019-05-06T11:08:23.186Z,52.74
2019-05-06T11:10:53.624Z,53.11
2019-05-06T11:13:24.409Z,51.92
2019-05-06T11:15:55.680Z,51.38
2019-05-06T11:18:25.182Z,51.17
2019-05-06T11:20:56.319Z,50.60
2019-05-06T11:23:26.009Z,50.94
2019-05-06T11:25:55.381Z,51.20
2019-05-06T11:28:42.980Z,50.26
2019-05-06T11:31:25.744Z,50.45
2019-05-06T11:33:59.706Z,50.85
2019-05-06T11:36:48.678Z,47.68
2019-05-06T11:39:18.129Z,47.48
2019-05-06T11:42:01.381Z,48.31
2019-05-06T11:44:18.881Z,48.85
2019-05-06T11:46:48.285Z,48.14
2019-05-06T11:49:17.946Z,48.59
2019-05-06T11:51:47.614Z,48.24
2019-05-06T11:54:20.835Z,48.05
2019-05-06T11:56:51.908Z,49.19
2019-05-06T11:59:22.668Z,48.47
2019-05-06T12:01:53.748Z,48.63
2019-05-06T12:04:23.492Z,48.92
2019-05-06T12:07:09.219Z,49.98
2019-05-06T12:09:24.134Z,50.08
2019-05-06T12:11:55.916Z,48.94
2019-05-06T12:14:25.268Z,49.02
2019-05-06T12:16:55.286Z,49.50
2019-05-06T12:19:24.983Z,50.72
2019-05-06T12:21:54.353Z,50.74
2019-05-06T12:24:23.718Z,51.12
2019-05-06T12:26:53.432Z,51.12
2019-05-06T12:29:23.374Z,51.73
2019-05-06T12:31:54.683Z,50.98
2019-05-06T12:34:25.515Z,51.20
2019-05-06T12:36:56.720Z,50.86
2019-05-06T12:39:26.965Z,49.96
2019-05-06T12:42:06.926Z,49.98
2019-05-06T12:44:38.530Z,49.41
2019-05-06T12:47:09.750Z,53.64
2019-05-06T12:49:39.126Z,56.08
2019-05-06T12:52:08.504Z,57.80
2019-05-06T12:54:38.358Z,58.73
2019-05-06T12:57:07.737Z,59.91
2019-05-06T12:59:37.370Z,60.43
2019-05-06T13:02:06.744Z,61.49
2019-05-06T13:04:49.557Z,62.67
2019-05-06T13:07:09.112Z,63.49
2019-05-06T13:09:42.351Z,64.34
2019-05-06T13:12:12.442Z,64.81
2019-05-06T13:14:43.065Z,65.58
2019-05-06T13:17:14.156Z,66.03
2019-05-06T13:19:43.834Z,65.98
2019-05-06T13:22:14.845Z,66.04
2019-05-06T13:24:44.520Z,66.54
2019-05-06T13:27:15.809Z,66.54
2019-05-06T13:29:45.534Z,66.77
2019-05-06T13:32:16.824Z,67.61
2019-05-06T13:34:46.479Z,68.35
2019-05-06T13:37:16.324Z,68.12
2019-05-06T13:39:45.789Z,67.22
2019-05-06T13:42:16.951Z,66.59
2019-05-06T13:44:46.776Z,66.79
2019-05-06T13:47:34.099Z,65.78
2019-05-06T13:50:05.096Z,66.14
2019-05-06T13:52:36.408Z,66.90
2019-05-06T13:55:09.069Z,66.76
2019-05-06T13:57:39.410Z,66.87
2019-05-06T14:00:09.801Z,66.58
2019-05-06T14:02:43.444Z,66.34
2019-05-06T14:05:12.543Z,65.86
2019-05-06T14:07:43.308Z,64.77
2019-05-06T14:10:14.408Z,64.99
2019-05-06T14:12:44.388Z,65.40
2019-05-06T14:15:13.913Z,65.36
2019-05-06T14:17:43.553Z,65.27
2019-05-06T14:20:13.752Z,65.29
2019-05-06T14:22:44.011Z,64.63
2019-05-06T14:25:17.989Z,65.13
2019-05-06T14:27:49.300Z,65.51
2019-05-06T14:30:26.135Z,66.21
2019-05-06T14:32:55.808Z,67.31
2019-05-06T14:35:25.396Z,68.11
2019-05-06T14:37:54.781Z,69.58
2019-05-06T14:40:27.648Z,70.20
2019-05-06T14:42:58.313Z,70.42
2019-05-06T14:45:27.696Z,71.82
2019-05-06T14:47:57.385Z,71.44
2019-05-06T14:50:31.245Z,71.62
2019-05-06T14:52:58.347Z,71.79
2019-05-06T14:55:29.354Z,72.87
2019-05-06T14:57:58.731Z,75.00
2019-05-06T15:00:28.392Z,76.61
2019-05-06T15:02:57.772Z,76.61
2019-05-06T15:05:27.460Z,76.65
2019-05-06T15:07:56.836Z,78.40
2019-05-06T15:10:26.660Z,79.25
2019-05-06T15:12:56.853Z,79.82
2019-05-06T15:15:26.504Z,79.71
2019-05-06T15:17:55.940Z,78.70
2019-05-06T15:20:25.519Z,77.25
2019-05-06T15:22:54.882Z,78.30
2019-05-06T15:25:24.464Z,76.59
2019-05-06T15:27:53.847Z,75.35
2019-05-06T15:30:28.026Z,74.69
2019-05-06T15:32:57.542Z,74.48
2019-05-06T15:35:29.197Z,75.35
2019-05-06T15:38:02.854Z,75.28
2019-05-06T15:40:36.573Z,69.05
2019-05-06T15:43:03.666Z,68.42
2019-05-06T15:45:33.917Z,68.40
2019-05-06T15:48:03.598Z,68.40
2019-05-06T15:50:33.028Z,67.39
2019-05-06T15:53:02.493Z,67.81
2019-05-06T15:55:32.741Z,67.64
2019-05-06T15:58:03.484Z,68.03
2019-05-06T16:00:33.661Z,68.01
2019-05-06T16:03:03.465Z,68.01
2019-05-06T16:05:34.518Z,67.45
2019-05-06T16:08:03.951Z,66.74
2019-05-06T16:10:50.958Z,66.14
2019-05-06T16:13:04.754Z,66.47
2019-05-06T16:15:34.269Z,67.38
2019-05-06T16:18:04.455Z,67.91
2019-05-06T16:20:34.008Z,67.55
2019-05-06T16:23:07.813Z,67.70
2019-05-06T16:25:37.470Z,68.13
2019-05-06T16:28:07.194Z,68.49
2019-05-06T16:30:36.584Z,70.13
2019-05-06T16:33:05.954Z,70.86
2019-05-06T16:35:35.613Z,71.97
2019-05-06T16:38:05.319Z,72.82
2019-05-06T16:40:35.927Z,74.10
2019-05-06T16:43:05.582Z,74.91
2019-05-06T16:45:35.236Z,76.05
2019-05-06T16:48:04.829Z,76.35
2019-05-06T16:50:34.662Z,76.93
2019-05-06T16:53:04.040Z,77.37
2019-05-06T16:55:52.701Z,77.91
2019-05-06T16:58:26.942Z,78.43
2019-05-06T17:00:56.590Z,78.73
2019-05-06T17:03:33.263Z,78.77
2019-05-06T17:06:23.131Z,78.96
2019-05-06T17:08:53.756Z,79.06
2019-05-06T17:11:30.292Z,79.09
2019-05-06T17:13:54.509Z,79.15
2019-05-06T17:16:23.868Z,79.39
2019-05-06T17:18:56.365Z,79.29
2019-05-06T17:21:24.301Z,79.30
2019-05-06T17:23:53.721Z,79.03
2019-05-06T17:26:23.080Z,78.57
2019-05-06T17:28:57.245Z,78.61
2019-05-06T17:31:37.371Z,78.75
2019-05-06T17:34:12.843Z,79.09
2019-05-06T17:36:42.574Z,79.79
2019-05-06T17:39:12.430Z,79.57
2019-05-06T17:41:48.289Z,79.31
2019-05-06T17:44:13.397Z,79.70
2019-05-06T17:46:56.439Z,79.78
2019-05-06T17:49:27.479Z,79.85
2019-05-06T17:52:04.442Z,79.98
2019-05-06T17:54:34.115Z,79.92
2019-05-06T17:57:04.714Z,79.72
2019-05-06T17:59:37.303Z,80.01
2019-05-06T18:02:06.922Z,80.19
2019-05-06T18:04:36.384Z,80.34
2019-05-06T18:07:05.843Z,80.45
2019-05-06T18:09:36.189Z,80.67
2019-05-06T18:12:05.732Z,80.77
2019-05-06T18:14:35.188Z,80.94
2019-05-06T18:17:04.752Z,81.21
2019-05-06T18:19:34.501Z,81.41
2019-05-06T18:22:03.980Z,81.36
2019-05-06T18:24:33.834Z,81.35
2019-05-06T18:27:03.285Z,81.51
2019-05-06T18:29:33.555Z,81.62
2019-05-06T18:32:03.886Z,81.62
2019-05-06T18:34:34.338Z,81.98
2019-05-06T18:37:03.927Z,82.14
2019-05-06T18:39:34.067Z,82.23
2019-05-06T18:42:15.524Z,82.65
2019-05-06T18:44:35.148Z,82.68
2019-05-06T18:47:04.819Z,82.68
2019-05-06T18:49:34.187Z,82.91
2019-05-06T18:52:04.981Z,83.22
2019-05-06T18:54:34.516Z,83.15
2019-05-06T18:57:04.926Z,83.15
2019-05-06T18:59:36.920Z,83.35
2019-05-06T19:02:05.852Z,83.47
2019-05-06T19:04:37.165Z,83.47
2019-05-06T19:07:12.791Z,83.55
2019-05-06T19:09:39.816Z,83.68
2019-05-06T19:12:09.242Z,83.77
2019-05-06T19:14:38.875Z,83.97
2019-05-06T19:17:08.248Z,84.11
2019-05-06T19:19:37.915Z,84.25
2019-05-06T19:22:07.292Z,84.40
2019-05-06T19:24:36.941Z,84.37
2019-05-06T19:27:06.322Z,84.41
2019-05-06T19:29:35.869Z,84.57
2019-05-06T19:32:05.269Z,84.71
2019-05-06T19:34:35.353Z,84.81
2019-05-06T19:37:05.033Z,84.98
2019-05-06T19:39:34.877Z,85.19
2019-05-06T19:42:05.142Z,85.50
2019-05-06T19:44:35.895Z,85.79
2019-05-06T19:47:05.271Z,86.08
2019-05-06T19:49:35.029Z,86.10
2019-05-06T19:52:04.400Z,86.00
2019-05-06T19:54:34.077Z,86.12
2019-05-06T19:57:03.565Z,86.14
2019-05-06T19:59:33.468Z,86.16
2019-05-06T20:02:05.165Z,86.25
2019-05-06T20:04:35.814Z,86.20
2019-05-06T20:07:13.309Z,85.96
2019-05-06T20:09:44.744Z,86.15
2019-05-06T20:12:26.701Z,85.96
2019-05-06T20:14:57.701Z,85.96
2019-05-06T20:17:27.083Z,86.73
2019-05-06T20:19:56.457Z,87.02
2019-05-06T20:22:26.141Z,86.93
2019-05-06T20:24:55.508Z,86.93
2019-05-06T20:27:25.179Z,87.23
2019-05-06T20:29:54.554Z,87.23
2019-05-06T20:32:24.056Z,87.26
2019-05-06T20:34:53.425Z,87.26
2019-05-06T20:37:23.118Z,87.26
2019-05-06T20:39:52.484Z,87.50
2019-05-06T20:42:22.306Z,87.81
2019-05-06T20:44:52.486Z,87.81
2019-05-06T20:47:22.087Z,88.19
2019-05-06T20:49:52.592Z,88.19
2019-05-06T20:52:23.007Z,88.11
2019-05-06T20:54:52.501Z,88.11
2019-05-06T20:57:23.088Z,88.20
2019-05-06T20:59:52.768Z,88.20
2019-05-06T21:02:25.632Z,88.04
2019-05-06T21:04:53.493Z,88.12
2019-05-06T21:07:23.245Z,88.89
2019-05-06T21:09:52.630Z,88.89
2019-05-06T21:12:23.186Z,88.94
2019-05-06T21:14:52.574Z,88.99
2019-05-06T21:17:22.877Z,88.97
2019-05-06T21:19:52.413Z,88.97
2019-05-06T21:22:22.746Z,89.17
2019-05-06T21:24:52.267Z,89.28
2019-05-06T21:27:23.015Z,89.36
2019-05-06T21:29:52.869Z,89.42
2019-05-06T21:32:22.248Z,89.68
2019-05-06T21:34:52.595Z,90.02
2019-05-06T21:37:22.994Z,90.48
2019-05-06T21:39:53.034Z,90.80
2019-05-06T21:42:24.066Z,90.86
2019-05-06T21:44:53.538Z,90.89
2019-05-06T21:47:23.035Z,91.11
2019-05-06T21:49:52.906Z,91.00
2019-05-06T21:52:34.348Z,90.96
2019-05-06T21:54:53.454Z,91.02
2019-05-06T21:57:23.120Z,91.06
2019-05-06T21:59:52.666Z,91.19
2019-05-06T22:02:23.024Z,91.47
2019-05-06T22:04:55.497Z,91.52
2019-05-06T22:07:23.582Z,91.48
2019-05-06T22:09:53.246Z,91.47
2019-05-06T22:12:24.480Z,91.18
2019-05-06T22:14:53.695Z,91.15
2019-05-06T22:17:23.270Z,91.13
2019-05-06T22:19:52.639Z,91.08
2019-05-06T22:22:24.206Z,91.03
2019-05-06T22:24:57.657Z,91.17
2019-05-06T22:27:26.761Z,91.09
2019-05-06T22:29:56.309Z,91.33
2019-05-06T22:32:25.702Z,91.62
2019-05-06T22:34:55.281Z,91.81
2019-05-06T22:37:24.659Z,91.91
2019-05-06T22:39:54.322Z,91.95
2019-05-06T22:42:24.920Z,91.90
2019-05-06T22:44:54.451Z,91.75
2019-05-06T22:47:23.839Z,91.47
2019-05-06T22:49:54.332Z,91.45
2019-05-06T22:52:23.868Z,91.34
2019-05-06T22:54:53.412Z,91.46
2019-05-06T22:57:23.558Z,91.52
2019-05-06T22:59:53.548Z,91.66
2019-05-06T23:02:33.513Z,91.88
2019-05-06T23:05:04.553Z,91.96
2019-05-06T23:07:34.223Z,91.92
2019-05-06T23:10:06.622Z,91.91
2019-05-06T23:12:36.317Z,91.97
2019-05-06T23:15:07.274Z,92.22
2019-05-06T23:17:36.749Z,92.41
2019-05-06T23:20:06.492Z,92.57
2019-05-06T23:22:36.848Z,92.57
2019-05-06T23:25:06.886Z,92.73
2019-05-06T23:42:19.765Z,92.61
2019-05-06T23:45:25.800Z,92.66
2019-05-06T23:48:31.809Z,92.70
2019-05-06T23:51:38.692Z,92.70
2019-05-06T23:54:44.783Z,92.71
2019-05-06T23:57:13.416Z,92.64
2019-05-06T23:59:43.134Z,92.79
